sensor_id;sensor_type;location;lat;lon;timestamp;P1;durP1;ratioP1;P2;durP2;ratioP2
41293;SDS011;27037;52.010;4.446;2023-09-12T00:00:47;66.18;;;37.72;;
41293;SDS011;27037;52.010;4.446;2023-09-12T00:03:13;66.15;;;38.90;;
41293;SDS011;27037;52.010;4.446;2023-09-12T00:05:39;66.30;;;38.67;;
41293;SDS011;27037;52.010;4.446;2023-09-12T00:08:05;71.22;;;40.60;;
41293;SDS011;27037;52.010;4.446;2023-09-12T00:10:31;76.68;;;42.45;;
41293;SDS011;27037;52.010;4.446;2023-09-12T00:12:57;73.55;;;42.58;;
41293;SDS011;27037;52.010;4.446;2023-09-12T00:15:25;81.57;;;42.63;;
41293;SDS011;27037;52.010;4.446;2023-09-12T00:17:51;75.55;;;42.58;;
41293;SDS011;27037;52.010;4.446;2023-09-12T00:20:17;72.43;;;41.95;;
41293;SDS011;27037;52.010;4.446;2023-09-12T00:22:42;77.85;;;41.97;;
41293;SDS011;27037;52.010;4.446;2023-09-12T00:25:08;69.82;;;40.00;;
41293;SDS011;27037;52.010;4.446;2023-09-12T00:27:33;67.95;;;39.75;;
41293;SDS011;27037;52.010;4.446;2023-09-12T00:29:59;71.40;;;40.25;;
41293;SDS011;27037;52.010;4.446;2023-09-12T00:32:25;70.15;;;39.60;;
41293;SDS011;27037;52.010;4.446;2023-09-12T00:34:50;68.50;;;38.78;;
41293;SDS011;27037;52.010;4.446;2023-09-12T00:37:16;70.40;;;38.58;;
41293;SDS011;27037;52.010;4.446;2023-09-12T00:39:41;74.60;;;40.10;;
41293;SDS011;27037;52.010;4.446;2023-09-12T00:42:07;67.30;;;38.97;;
41293;SDS011;27037;52.010;4.446;2023-09-12T00:44:33;74.97;;;40.90;;
41293;SDS011;27037;52.010;4.446;2023-09-12T00:46:59;73.13;;;41.10;;
41293;SDS011;27037;52.010;4.446;2023-09-12T00:49:26;73.35;;;39.88;;
41293;SDS011;27037;52.010;4.446;2023-09-12T00:51:53;72.72;;;39.13;;
41293;SDS011;27037;52.010;4.446;2023-09-12T00:54:21;72.88;;;39.33;;
41293;SDS011;27037;52.010;4.446;2023-09-12T00:56:46;71.28;;;38.03;;
41293;SDS011;27037;52.010;4.446;2023-09-12T00:59:12;75.05;;;38.35;;
41293;SDS011;27037;52.010;4.446;2023-09-12T01:01:41;68.43;;;36.40;;
41293;SDS011;27037;52.010;4.446;2023-09-12T01:04:06;71.03;;;37.00;;
41293;SDS011;27037;52.010;4.446;2023-09-12T01:06:33;69.75;;;37.90;;
41293;SDS011;27037;52.010;4.446;2023-09-12T01:08:59;67.78;;;36.20;;
41293;SDS011;27037;52.010;4.446;2023-09-12T01:11:26;75.18;;;36.90;;
41293;SDS011;27037;52.010;4.446;2023-09-12T01:13:52;71.38;;;36.83;;
41293;SDS011;27037;52.010;4.446;2023-09-12T01:16:17;69.85;;;37.53;;
41293;SDS011;27037;52.010;4.446;2023-09-12T01:18:43;63.95;;;34.95;;
41293;SDS011;27037;52.010;4.446;2023-09-12T01:29:40;55.03;;;31.02;;
41293;SDS011;27037;52.010;4.446;2023-09-12T01:32:08;57.10;;;30.67;;
41293;SDS011;27037;52.010;4.446;2023-09-12T01:34:35;56.53;;;29.80;;
41293;SDS011;27037;52.010;4.446;2023-09-12T01:37:00;49.22;;;28.60;;
41293;SDS011;27037;52.010;4.446;2023-09-12T01:39:26;51.67;;;28.58;;
41293;SDS011;27037;52.010;4.446;2023-09-12T01:41:51;51.03;;;27.70;;
41293;SDS011;27037;52.010;4.446;2023-09-12T01:44:19;50.05;;;28.48;;
41293;SDS011;27037;52.010;4.446;2023-09-12T01:46:49;51.00;;;27.92;;
41293;SDS011;27037;52.010;4.446;2023-09-12T01:49:18;49.33;;;26.70;;
41293;SDS011;27037;52.010;4.446;2023-09-12T01:51:46;48.72;;;25.65;;
41293;SDS011;27037;52.010;4.446;2023-09-12T01:54:12;44.53;;;26.13;;
41293;SDS011;27037;52.010;4.446;2023-09-12T01:56:39;45.75;;;25.38;;
41293;SDS011;27037;52.010;4.446;2023-09-12T01:59:05;38.58;;;23.30;;
41293;SDS011;27037;52.010;4.446;2023-09-12T02:01:31;46.60;;;25.60;;
41293;SDS011;27037;52.010;4.446;2023-09-12T02:03:57;40.60;;;24.17;;
41293;SDS011;27037;52.010;4.446;2023-09-12T02:06:23;42.67;;;25.55;;
41293;SDS011;27037;52.010;4.446;2023-09-12T02:08:48;46.60;;;25.02;;
41293;SDS011;27037;52.010;4.446;2023-09-12T02:11:14;47.38;;;26.17;;
41293;SDS011;27037;52.010;4.446;2023-09-12T02:13:40;44.58;;;26.52;;
41293;SDS011;27037;52.010;4.446;2023-09-12T02:16:05;42.50;;;24.63;;
41293;SDS011;27037;52.010;4.446;2023-09-12T02:18:31;41.80;;;24.98;;
41293;SDS011;27037;52.010;4.446;2023-09-12T02:20:58;46.15;;;26.40;;
41293;SDS011;27037;52.010;4.446;2023-09-12T02:23:23;52.10;;;26.70;;
41293;SDS011;27037;52.010;4.446;2023-09-12T02:25:49;48.20;;;26.98;;
41293;SDS011;27037;52.010;4.446;2023-09-12T02:28:15;51.00;;;28.90;;
41293;SDS011;27037;52.010;4.446;2023-09-12T02:30:41;49.80;;;27.58;;
41293;SDS011;27037;52.010;4.446;2023-09-12T02:33:06;57.65;;;30.38;;
41293;SDS011;27037;52.010;4.446;2023-09-12T02:35:32;50.72;;;28.67;;
41293;SDS011;27037;52.010;4.446;2023-09-12T02:37:57;57.45;;;30.08;;
41293;SDS011;27037;52.010;4.446;2023-09-12T02:40:23;54.97;;;29.15;;
41293;SDS011;27037;52.010;4.446;2023-09-12T02:42:50;62.17;;;31.05;;
41293;SDS011;27037;52.010;4.446;2023-09-12T02:45:16;56.90;;;30.45;;
41293;SDS011;27037;52.010;4.446;2023-09-12T02:47:41;60.45;;;32.17;;
41293;SDS011;27037;52.010;4.446;2023-09-12T02:50:08;65.57;;;33.22;;
41293;SDS011;27037;52.010;4.446;2023-09-12T02:52:34;61.08;;;32.72;;
41293;SDS011;27037;52.010;4.446;2023-09-12T02:55:00;63.00;;;33.28;;
41293;SDS011;27037;52.010;4.446;2023-09-12T02:57:26;67.10;;;32.83;;
41293;SDS011;27037;52.010;4.446;2023-09-12T02:59:51;65.88;;;32.85;;
41293;SDS011;27037;52.010;4.446;2023-09-12T03:02:17;63.92;;;33.03;;
41293;SDS011;27037;52.010;4.446;2023-09-12T03:04:42;63.35;;;31.67;;
41293;SDS011;27037;52.010;4.446;2023-09-12T03:07:08;66.65;;;33.35;;
41293;SDS011;27037;52.010;4.446;2023-09-12T03:09:34;67.78;;;33.67;;
41293;SDS011;27037;52.010;4.446;2023-09-12T03:12:02;67.63;;;34.03;;
41293;SDS011;27037;52.010;4.446;2023-09-12T03:14:28;61.65;;;31.98;;
41293;SDS011;27037;52.010;4.446;2023-09-12T03:16:54;66.82;;;34.25;;
41293;SDS011;27037;52.010;4.446;2023-09-12T03:19:20;62.95;;;32.75;;
41293;SDS011;27037;52.010;4.446;2023-09-12T03:21:46;67.07;;;34.13;;
41293;SDS011;27037;52.010;4.446;2023-09-12T03:24:12;69.90;;;35.40;;
41293;SDS011;27037;52.010;4.446;2023-09-12T03:26:38;64.03;;;34.00;;
41293;SDS011;27037;52.010;4.446;2023-09-12T03:29:03;73.72;;;35.83;;
41293;SDS011;27037;52.010;4.446;2023-09-12T03:31:29;71.97;;;33.70;;
41293;SDS011;27037;52.010;4.446;2023-09-12T03:33:55;63.08;;;33.60;;
41293;SDS011;27037;52.010;4.446;2023-09-12T03:36:21;64.95;;;33.15;;
41293;SDS011;27037;52.010;4.446;2023-09-12T03:38:47;65.50;;;32.63;;
41293;SDS011;27037;52.010;4.446;2023-09-12T03:41:12;67.60;;;34.17;;
41293;SDS011;27037;52.010;4.446;2023-09-12T03:43:38;69.53;;;34.25;;
41293;SDS011;27037;52.010;4.446;2023-09-12T03:46:04;68.88;;;34.63;;
41293;SDS011;27037;52.010;4.446;2023-09-12T03:48:29;68.20;;;34.67;;
41293;SDS011;27037;52.010;4.446;2023-09-12T03:50:56;60.85;;;32.70;;
41293;SDS011;27037;52.010;4.446;2023-09-12T03:53:22;68.40;;;34.50;;
41293;SDS011;27037;52.010;4.446;2023-09-12T03:55:48;72.97;;;34.47;;
41293;SDS011;27037;52.010;4.446;2023-09-12T03:58:13;79.38;;;36.90;;
41293;SDS011;27037;52.010;4.446;2023-09-12T04:00:39;81.32;;;37.70;;
41293;SDS011;27037;52.010;4.446;2023-09-12T04:03:05;82.70;;;38.03;;
41293;SDS011;27037;52.010;4.446;2023-09-12T04:05:30;84.80;;;37.63;;
41293;SDS011;27037;52.010;4.446;2023-09-12T04:07:56;80.32;;;38.00;;
41293;SDS011;27037;52.010;4.446;2023-09-12T04:10:22;77.28;;;37.28;;
41293;SDS011;27037;52.010;4.446;2023-09-12T04:12:48;82.85;;;39.10;;
41293;SDS011;27037;52.010;4.446;2023-09-12T04:15:14;83.10;;;38.78;;
41293;SDS011;27037;52.010;4.446;2023-09-12T04:17:39;82.47;;;39.17;;
41293;SDS011;27037;52.010;4.446;2023-09-12T04:20:05;87.38;;;40.67;;
41293;SDS011;27037;52.010;4.446;2023-09-12T04:22:32;86.28;;;39.40;;
41293;SDS011;27037;52.010;4.446;2023-09-12T04:24:58;90.78;;;40.50;;
41293;SDS011;27037;52.010;4.446;2023-09-12T04:27:24;88.03;;;40.00;;
41293;SDS011;27037;52.010;4.446;2023-09-12T04:29:49;83.93;;;38.42;;
41293;SDS011;27037;52.010;4.446;2023-09-12T04:32:15;85.78;;;39.20;;
41293;SDS011;27037;52.010;4.446;2023-09-12T04:34:43;88.15;;;39.95;;
41293;SDS011;27037;52.010;4.446;2023-09-12T04:37:09;91.18;;;41.85;;
41293;SDS011;27037;52.010;4.446;2023-09-12T04:39:35;93.90;;;41.75;;
41293;SDS011;27037;52.010;4.446;2023-09-12T04:42:00;92.32;;;42.28;;
41293;SDS011;27037;52.010;4.446;2023-09-12T04:44:26;92.88;;;42.38;;
41293;SDS011;27037;52.010;4.446;2023-09-12T04:46:52;96.97;;;43.55;;
41293;SDS011;27037;52.010;4.446;2023-09-12T04:49:20;95.78;;;43.13;;
41293;SDS011;27037;52.010;4.446;2023-09-12T04:51:46;95.72;;;44.20;;
41293;SDS011;27037;52.010;4.446;2023-09-12T04:54:12;99.03;;;44.00;;
41293;SDS011;27037;52.010;4.446;2023-09-12T04:56:37;100.88;;;43.55;;
41293;SDS011;27037;52.010;4.446;2023-09-12T04:59:03;98.97;;;43.90;;
41293;SDS011;27037;52.010;4.446;2023-09-12T05:01:28;98.97;;;42.90;;
41293;SDS011;27037;52.010;4.446;2023-09-12T05:03:54;100.55;;;44.40;;
41293;SDS011;27037;52.010;4.446;2023-09-12T05:06:20;93.53;;;42.75;;
41293;SDS011;27037;52.010;4.446;2023-09-12T05:08:45;98.68;;;44.00;;
41293;SDS011;27037;52.010;4.446;2023-09-12T05:11:11;93.03;;;43.05;;
41293;SDS011;27037;52.010;4.446;2023-09-12T05:13:37;91.95;;;41.30;;
41293;SDS011;27037;52.010;4.446;2023-09-12T05:16:02;99.85;;;43.67;;
41293;SDS011;27037;52.010;4.446;2023-09-12T05:18:28;96.22;;;43.95;;
41293;SDS011;27037;52.010;4.446;2023-09-12T05:20:54;100.35;;;44.05;;
41293;SDS011;27037;52.010;4.446;2023-09-12T05:23:19;100.47;;;43.55;;
41293;SDS011;27037;52.010;4.446;2023-09-12T05:25:45;98.55;;;42.72;;
41293;SDS011;27037;52.010;4.446;2023-09-12T05:28:11;93.57;;;43.50;;
41293;SDS011;27037;52.010;4.446;2023-09-12T05:30:40;95.57;;;41.88;;
41293;SDS011;27037;52.010;4.446;2023-09-12T05:33:09;97.63;;;42.95;;
41293;SDS011;27037;52.010;4.446;2023-09-12T05:35:35;95.20;;;42.85;;
41293;SDS011;27037;52.010;4.446;2023-09-12T05:38:02;92.07;;;41.90;;
41293;SDS011;27037;52.010;4.446;2023-09-12T05:40:28;94.57;;;42.17;;
41293;SDS011;27037;52.010;4.446;2023-09-12T05:42:54;95.90;;;40.88;;
41293;SDS011;27037;52.010;4.446;2023-09-12T05:45:19;95.68;;;42.15;;
41293;SDS011;27037;52.010;4.446;2023-09-12T05:47:45;89.57;;;39.78;;
41293;SDS011;27037;52.010;4.446;2023-09-12T05:50:11;96.63;;;43.13;;
41293;SDS011;27037;52.010;4.446;2023-09-12T05:52:36;84.03;;;40.45;;
41293;SDS011;27037;52.010;4.446;2023-09-12T05:55:02;88.68;;;41.47;;
41293;SDS011;27037;52.010;4.446;2023-09-12T05:57:29;86.03;;;40.67;;
41293;SDS011;27037;52.010;4.446;2023-09-12T06:00:00;88.70;;;40.90;;
41293;SDS011;27037;52.010;4.446;2023-09-12T06:02:26;88.95;;;41.50;;
41293;SDS011;27037;52.010;4.446;2023-09-12T06:04:52;93.32;;;42.30;;
41293;SDS011;27037;52.010;4.446;2023-09-12T06:07:18;95.22;;;43.53;;
41293;SDS011;27037;52.010;4.446;2023-09-12T06:09:44;89.97;;;41.00;;
41293;SDS011;27037;52.010;4.446;2023-09-12T06:12:10;86.03;;;41.13;;
41293;SDS011;27037;52.010;4.446;2023-09-12T06:14:35;93.18;;;41.22;;
41293;SDS011;27037;52.010;4.446;2023-09-12T06:17:01;90.57;;;43.33;;
41293;SDS011;27037;52.010;4.446;2023-09-12T06:19:27;98.78;;;45.30;;
41293;SDS011;27037;52.010;4.446;2023-09-12T06:21:52;95.97;;;44.72;;
41293;SDS011;27037;52.010;4.446;2023-09-12T06:24:21;93.35;;;44.00;;
41293;SDS011;27037;52.010;4.446;2023-09-12T06:26:48;99.88;;;46.10;;
41293;SDS011;27037;52.010;4.446;2023-09-12T06:29:14;99.22;;;45.22;;
41293;SDS011;27037;52.010;4.446;2023-09-12T06:31:40;93.80;;;44.03;;
41293;SDS011;27037;52.010;4.446;2023-09-12T06:34:09;95.07;;;44.72;;
41293;SDS011;27037;52.010;4.446;2023-09-12T06:36:35;97.63;;;46.03;;
41293;SDS011;27037;52.010;4.446;2023-09-12T06:39:01;94.93;;;44.42;;
41293;SDS011;27037;52.010;4.446;2023-09-12T06:41:28;99.57;;;46.90;;
41293;SDS011;27037;52.010;4.446;2023-09-12T06:43:54;97.28;;;46.55;;
41293;SDS011;27037;52.010;4.446;2023-09-12T06:46:22;98.95;;;46.00;;
41293;SDS011;27037;52.010;4.446;2023-09-12T06:48:47;93.85;;;44.72;;
41293;SDS011;27037;52.010;4.446;2023-09-12T06:51:15;88.90;;;45.45;;
41293;SDS011;27037;52.010;4.446;2023-09-12T06:53:41;96.68;;;46.22;;
41293;SDS011;27037;52.010;4.446;2023-09-12T06:56:07;101.13;;;46.95;;
41293;SDS011;27037;52.010;4.446;2023-09-12T06:58:33;100.20;;;46.70;;
41293;SDS011;27037;52.010;4.446;2023-09-12T07:01:02;89.95;;;44.58;;
41293;SDS011;27037;52.010;4.446;2023-09-12T07:03:29;95.20;;;46.60;;
41293;SDS011;27037;52.010;4.446;2023-09-12T07:05:55;95.35;;;44.85;;
41293;SDS011;27037;52.010;4.446;2023-09-12T07:08:21;94.07;;;45.17;;
41293;SDS011;27037;52.010;4.446;2023-09-12T07:10:47;95.22;;;44.08;;
41293;SDS011;27037;52.010;4.446;2023-09-12T07:13:12;97.22;;;44.90;;
41293;SDS011;27037;52.010;4.446;2023-09-12T07:15:38;98.93;;;45.90;;
41293;SDS011;27037;52.010;4.446;2023-09-12T07:18:04;92.35;;;44.38;;
41293;SDS011;27037;52.010;4.446;2023-09-12T07:20:31;92.97;;;45.58;;
41293;SDS011;27037;52.010;4.446;2023-09-12T07:23:00;85.35;;;44.22;;
41293;SDS011;27037;52.010;4.446;2023-09-12T07:25:26;94.78;;;43.85;;
41293;SDS011;27037;52.010;4.446;2023-09-12T07:27:51;87.53;;;43.58;;
41293;SDS011;27037;52.010;4.446;2023-09-12T07:30:18;90.00;;;43.67;;
41293;SDS011;27037;52.010;4.446;2023-09-12T07:32:43;85.10;;;42.72;;
41293;SDS011;27037;52.010;4.446;2023-09-12T07:35:09;83.13;;;41.35;;
41293;SDS011;27037;52.010;4.446;2023-09-12T07:37:35;74.97;;;39.90;;
41293;SDS011;27037;52.010;4.446;2023-09-12T07:40:01;80.20;;;40.80;;
41293;SDS011;27037;52.010;4.446;2023-09-12T07:42:34;81.18;;;39.22;;
41293;SDS011;27037;52.010;4.446;2023-09-12T07:45:00;69.72;;;37.45;;
41293;SDS011;27037;52.010;4.446;2023-09-12T07:47:28;67.65;;;36.35;;
41293;SDS011;27037;52.010;4.446;2023-09-12T07:49:54;70.70;;;38.25;;
41293;SDS011;27037;52.010;4.446;2023-09-12T07:52:20;64.03;;;36.63;;
41293;SDS011;27037;52.010;4.446;2023-09-12T07:54:45;65.25;;;36.17;;
41293;SDS011;27037;52.010;4.446;2023-09-12T07:57:11;65.90;;;36.53;;
41293;SDS011;27037;52.010;4.446;2023-09-12T07:59:37;66.20;;;38.00;;
41293;SDS011;27037;52.010;4.446;2023-09-12T08:02:02;67.85;;;38.25;;
41293;SDS011;27037;52.010;4.446;2023-09-12T08:04:28;75.35;;;39.72;;
41293;SDS011;27037;52.010;4.446;2023-09-12T08:06:54;69.15;;;40.25;;
41293;SDS011;27037;52.010;4.446;2023-09-12T08:09:20;70.65;;;38.78;;
41293;SDS011;27037;52.010;4.446;2023-09-12T08:11:45;74.35;;;41.25;;
41293;SDS011;27037;52.010;4.446;2023-09-12T08:14:11;68.47;;;40.33;;
41293;SDS011;27037;52.010;4.446;2023-09-12T08:16:37;73.32;;;40.05;;
41293;SDS011;27037;52.010;4.446;2023-09-12T08:19:02;74.30;;;42.05;;
41293;SDS011;27037;52.010;4.446;2023-09-12T08:21:28;74.15;;;43.30;;
41293;SDS011;27037;52.010;4.446;2023-09-12T08:23:54;68.70;;;42.50;;
41293;SDS011;27037;52.010;4.446;2023-09-12T08:26:20;68.05;;;41.95;;
41293;SDS011;27037;52.010;4.446;2023-09-12T08:28:45;70.90;;;43.35;;
41293;SDS011;27037;52.010;4.446;2023-09-12T08:31:11;74.30;;;44.42;;
41293;SDS011;27037;52.010;4.446;2023-09-12T08:33:36;70.93;;;44.72;;
41293;SDS011;27037;52.010;4.446;2023-09-12T08:36:02;68.95;;;42.72;;
41293;SDS011;27037;52.010;4.446;2023-09-12T08:38:28;69.93;;;42.92;;
41293;SDS011;27037;52.010;4.446;2023-09-12T08:40:53;67.00;;;43.00;;
41293;SDS011;27037;52.010;4.446;2023-09-12T08:43:20;69.05;;;41.45;;
41293;SDS011;27037;52.010;4.446;2023-09-12T08:45:45;63.30;;;40.28;;
41293;SDS011;27037;52.010;4.446;2023-09-12T08:48:12;61.78;;;40.30;;
41293;SDS011;27037;52.010;4.446;2023-09-12T08:50:38;62.33;;;40.35;;
41293;SDS011;27037;52.010;4.446;2023-09-12T08:53:04;60.17;;;39.35;;
41293;SDS011;27037;52.010;4.446;2023-09-12T08:55:33;55.50;;;35.17;;
41293;SDS011;27037;52.010;4.446;2023-09-12T08:58:03;54.25;;;36.13;;
41293;SDS011;27037;52.010;4.446;2023-09-12T09:00:30;52.88;;;34.55;;
41293;SDS011;27037;52.010;4.446;2023-09-12T09:02:55;54.72;;;34.60;;
41293;SDS011;27037;52.010;4.446;2023-09-12T09:05:21;46.65;;;32.65;;
41293;SDS011;27037;52.010;4.446;2023-09-12T09:07:48;48.08;;;32.65;;
41293;SDS011;27037;52.010;4.446;2023-09-12T09:10:15;49.17;;;33.03;;
41293;SDS011;27037;52.010;4.446;2023-09-12T09:12:43;40.95;;;29.27;;
41293;SDS011;27037;52.010;4.446;2023-09-12T09:15:20;43.17;;;26.73;;
41293;SDS011;27037;52.010;4.446;2023-09-12T09:17:53;44.45;;;30.23;;
41293;SDS011;27037;52.010;4.446;2023-09-12T09:20:30;47.47;;;30.45;;
41293;SDS011;27037;52.010;4.446;2023-09-12T09:22:58;39.05;;;27.38;;
41293;SDS011;27037;52.010;4.446;2023-09-12T09:25:25;42.40;;;29.27;;
41293;SDS011;27037;52.010;4.446;2023-09-12T09:27:51;38.95;;;28.58;;
41293;SDS011;27037;52.010;4.446;2023-09-12T09:30:17;42.80;;;29.70;;
41293;SDS011;27037;52.010;4.446;2023-09-12T09:32:43;40.50;;;29.05;;
41293;SDS011;27037;52.010;4.446;2023-09-12T09:35:10;41.50;;;29.25;;
41293;SDS011;27037;52.010;4.446;2023-09-12T09:37:37;39.83;;;27.50;;
41293;SDS011;27037;52.010;4.446;2023-09-12T09:40:05;40.15;;;30.00;;
41293;SDS011;27037;52.010;4.446;2023-09-12T09:42:32;37.75;;;25.58;;
41293;SDS011;27037;52.010;4.446;2023-09-12T09:44:58;36.28;;;24.83;;
41293;SDS011;27037;52.010;4.446;2023-09-12T09:47:23;33.67;;;24.67;;
41293;SDS011;27037;52.010;4.446;2023-09-12T09:49:51;33.83;;;25.40;;
41293;SDS011;27037;52.010;4.446;2023-09-12T09:52:16;35.42;;;25.13;;
41293;SDS011;27037;52.010;4.446;2023-09-12T09:54:51;38.40;;;26.17;;
41293;SDS011;27037;52.010;4.446;2023-09-12T09:57:17;40.80;;;28.58;;
41293;SDS011;27037;52.010;4.446;2023-09-12T09:59:43;37.15;;;26.23;;
41293;SDS011;27037;52.010;4.446;2023-09-12T10:02:18;44.35;;;27.27;;
41293;SDS011;27037;52.010;4.446;2023-09-12T10:04:47;38.13;;;26.02;;
41293;SDS011;27037;52.010;4.446;2023-09-12T10:07:15;40.03;;;27.38;;
41293;SDS011;27037;52.010;4.446;2023-09-12T10:09:42;43.55;;;29.10;;
41293;SDS011;27037;52.010;4.446;2023-09-12T10:12:09;36.65;;;25.88;;
41293;SDS011;27037;52.010;4.446;2023-09-12T10:14:35;34.30;;;24.02;;
41293;SDS011;27037;52.010;4.446;2023-09-12T10:17:04;36.13;;;24.55;;
41293;SDS011;27037;52.010;4.446;2023-09-12T10:19:32;38.08;;;28.35;;
41293;SDS011;27037;52.010;4.446;2023-09-12T10:22:22;49.10;;;33.33;;
41293;SDS011;27037;52.010;4.446;2023-09-12T10:24:52;51.33;;;32.03;;
41293;SDS011;27037;52.010;4.446;2023-09-12T10:27:20;49.45;;;34.05;;
41293;SDS011;27037;52.010;4.446;2023-09-12T10:29:49;54.15;;;33.33;;
41293;SDS011;27037;52.010;4.446;2023-09-12T10:32:18;54.53;;;34.15;;
41293;SDS011;27037;52.010;4.446;2023-09-12T10:34:47;54.15;;;33.75;;
41293;SDS011;27037;52.010;4.446;2023-09-12T10:37:17;47.45;;;31.20;;
41293;SDS011;27037;52.010;4.446;2023-09-12T10:39:46;53.28;;;33.65;;
41293;SDS011;27037;52.010;4.446;2023-09-12T10:42:13;50.05;;;33.25;;
41293;SDS011;27037;52.010;4.446;2023-09-12T10:44:41;49.65;;;33.72;;
41293;SDS011;27037;52.010;4.446;2023-09-12T10:47:07;46.95;;;31.02;;
41293;SDS011;27037;52.010;4.446;2023-09-12T10:49:34;55.30;;;33.22;;
41293;SDS011;27037;52.010;4.446;2023-09-12T10:51:59;65.88;;;36.67;;
41293;SDS011;27037;52.010;4.446;2023-09-12T10:54:38;67.90;;;37.30;;
41293;SDS011;27037;52.010;4.446;2023-09-12T10:57:05;59.90;;;36.08;;
41293;SDS011;27037;52.010;4.446;2023-09-12T11:02:42;60.88;;;37.72;;
41293;SDS011;27037;52.010;4.446;2023-09-12T11:07:55;59.60;;;38.25;;
41293;SDS011;27037;52.010;4.446;2023-09-12T11:10:23;58.47;;;38.42;;
41293;SDS011;27037;52.010;4.446;2023-09-12T11:12:50;61.45;;;41.00;;
41293;SDS011;27037;52.010;4.446;2023-09-12T11:15:22;58.53;;;39.17;;
41293;SDS011;27037;52.010;4.446;2023-09-12T11:17:59;66.45;;;43.45;;
41293;SDS011;27037;52.010;4.446;2023-09-12T11:23:34;51.40;;;34.65;;
41293;SDS011;27037;52.010;4.446;2023-09-12T11:26:04;46.83;;;31.13;;
41293;SDS011;27037;52.010;4.446;2023-09-12T11:28:31;44.53;;;30.15;;
41293;SDS011;27037;52.010;4.446;2023-09-12T11:30:57;47.67;;;31.00;;
41293;SDS011;27037;52.010;4.446;2023-09-12T11:33:23;42.85;;;29.20;;
41293;SDS011;27037;52.010;4.446;2023-09-12T11:35:54;47.08;;;30.20;;
41293;SDS011;27037;52.010;4.446;2023-09-12T11:38:29;47.58;;;32.65;;
41293;SDS011;27037;52.010;4.446;2023-09-12T11:40:57;46.58;;;31.85;;
41293;SDS011;27037;52.010;4.446;2023-09-12T11:43:24;43.25;;;32.13;;
41293;SDS011;27037;52.010;4.446;2023-09-12T11:45:51;51.53;;;33.83;;
41293;SDS011;27037;52.010;4.446;2023-09-12T11:48:17;58.38;;;36.10;;
41293;SDS011;27037;52.010;4.446;2023-09-12T11:50:48;46.08;;;31.83;;
41293;SDS011;27037;52.010;4.446;2023-09-12T11:53:19;49.50;;;30.97;;
41293;SDS011;27037;52.010;4.446;2023-09-12T11:55:48;48.38;;;31.33;;
41293;SDS011;27037;52.010;4.446;2023-09-12T11:58:19;47.70;;;31.30;;
41293;SDS011;27037;52.010;4.446;2023-09-12T12:00:51;51.17;;;32.55;;
41293;SDS011;27037;52.010;4.446;2023-09-12T12:03:19;50.58;;;32.40;;
41293;SDS011;27037;52.010;4.446;2023-09-12T12:05:47;53.53;;;32.28;;
41293;SDS011;27037;52.010;4.446;2023-09-12T12:08:13;42.47;;;30.23;;
41293;SDS011;27037;52.010;4.446;2023-09-12T12:10:40;46.97;;;30.20;;
41293;SDS011;27037;52.010;4.446;2023-09-12T12:13:15;41.85;;;27.48;;
41293;SDS011;27037;52.010;4.446;2023-09-12T12:15:45;40.95;;;27.08;;
41293;SDS011;27037;52.010;4.446;2023-09-12T12:18:11;36.70;;;22.73;;
41293;SDS011;27037;52.010;4.446;2023-09-12T12:20:37;35.67;;;20.65;;
41293;SDS011;27037;52.010;4.446;2023-09-12T12:23:03;33.38;;;20.38;;
41293;SDS011;27037;52.010;4.446;2023-09-12T12:25:32;35.05;;;21.17;;
41293;SDS011;27037;52.010;4.446;2023-09-12T12:28:01;37.33;;;22.90;;
41293;SDS011;27037;52.010;4.446;2023-09-12T12:30:31;37.38;;;23.27;;
41293;SDS011;27037;52.010;4.446;2023-09-12T12:33:00;35.45;;;23.15;;
41293;SDS011;27037;52.010;4.446;2023-09-12T12:35:27;37.10;;;22.20;;
41293;SDS011;27037;52.010;4.446;2023-09-12T12:37:54;34.15;;;20.27;;
41293;SDS011;27037;52.010;4.446;2023-09-12T12:40:21;30.15;;;20.67;;
41293;SDS011;27037;52.010;4.446;2023-09-12T12:42:47;47.25;;;24.52;;
41293;SDS011;27037;52.010;4.446;2023-09-12T12:45:14;35.92;;;23.40;;
41293;SDS011;27037;52.010;4.446;2023-09-12T12:47:41;34.75;;;23.17;;
41293;SDS011;27037;52.010;4.446;2023-09-12T12:50:10;36.60;;;22.42;;
41293;SDS011;27037;52.010;4.446;2023-09-12T12:52:36;29.73;;;22.23;;
41293;SDS011;27037;52.010;4.446;2023-09-12T12:55:12;34.70;;;23.67;;
41293;SDS011;27037;52.010;4.446;2023-09-12T12:57:39;31.45;;;22.50;;
41293;SDS011;27037;52.010;4.446;2023-09-12T13:02:43;32.10;;;23.40;;
41293;SDS011;27037;52.010;4.446;2023-09-12T13:05:19;30.55;;;23.85;;
41293;SDS011;27037;52.010;4.446;2023-09-12T13:07:53;30.85;;;22.67;;
41293;SDS011;27037;52.010;4.446;2023-09-12T13:10:19;29.38;;;22.92;;
41293;SDS011;27037;52.010;4.446;2023-09-12T13:12:46;31.15;;;20.67;;
41293;SDS011;27037;52.010;4.446;2023-09-12T13:15:12;30.45;;;20.38;;
41293;SDS011;27037;52.010;4.446;2023-09-12T13:17:38;28.35;;;21.60;;
41293;SDS011;27037;52.010;4.446;2023-09-12T13:20:05;31.50;;;22.15;;
41293;SDS011;27037;52.010;4.446;2023-09-12T13:22:33;30.83;;;22.10;;
41293;SDS011;27037;52.010;4.446;2023-09-12T13:24:59;32.38;;;21.55;;
41293;SDS011;27037;52.010;4.446;2023-09-12T13:27:25;27.20;;;20.10;;
41293;SDS011;27037;52.010;4.446;2023-09-12T13:29:50;25.38;;;19.83;;
41293;SDS011;27037;52.010;4.446;2023-09-12T13:32:16;27.10;;;19.45;;
41293;SDS011;27037;52.010;4.446;2023-09-12T13:34:43;27.10;;;18.38;;
41293;SDS011;27037;52.010;4.446;2023-09-12T13:37:09;27.00;;;18.65;;
41293;SDS011;27037;52.010;4.446;2023-09-12T13:39:35;25.35;;;18.38;;
41293;SDS011;27037;52.010;4.446;2023-09-12T13:42:00;23.00;;;18.23;;
41293;SDS011;27037;52.010;4.446;2023-09-12T13:44:28;22.02;;;16.55;;
41293;SDS011;27037;52.010;4.446;2023-09-12T13:46:54;24.35;;;16.05;;
41293;SDS011;27037;52.010;4.446;2023-09-12T13:49:19;24.13;;;16.88;;
41293;SDS011;27037;52.010;4.446;2023-09-12T13:51:45;39.80;;;19.90;;
41293;SDS011;27037;52.010;4.446;2023-09-12T13:54:11;33.42;;;16.50;;
41293;SDS011;27037;52.010;4.446;2023-09-12T13:56:40;28.88;;;15.95;;
41293;SDS011;27037;52.010;4.446;2023-09-12T13:59:06;33.15;;;16.83;;
41293;SDS011;27037;52.010;4.446;2023-09-12T14:01:32;28.88;;;14.13;;
41293;SDS011;27037;52.010;4.446;2023-09-12T14:03:57;23.20;;;11.52;;
41293;SDS011;27037;52.010;4.446;2023-09-12T14:06:23;20.55;;;9.68;;
41293;SDS011;27037;52.010;4.446;2023-09-12T14:08:48;21.25;;;9.90;;
41293;SDS011;27037;52.010;4.446;2023-09-12T14:11:14;20.40;;;11.65;;
41293;SDS011;27037;52.010;4.446;2023-09-12T14:13:40;20.67;;;12.32;;
41293;SDS011;27037;52.010;4.446;2023-09-12T14:16:05;21.23;;;11.52;;
41293;SDS011;27037;52.010;4.446;2023-09-12T14:18:31;19.55;;;12.38;;
41293;SDS011;27037;52.010;4.446;2023-09-12T14:20:56;19.23;;;12.10;;
41293;SDS011;27037;52.010;4.446;2023-09-12T14:23:22;17.23;;;11.48;;
41293;SDS011;27037;52.010;4.446;2023-09-12T14:25:48;15.93;;;12.20;;
41293;SDS011;27037;52.010;4.446;2023-09-12T14:28:14;16.98;;;11.63;;
41293;SDS011;27037;52.010;4.446;2023-09-12T14:30:39;16.63;;;11.18;;
41293;SDS011;27037;52.010;4.446;2023-09-12T14:33:09;16.55;;;11.63;;
41293;SDS011;27037;52.010;4.446;2023-09-12T14:35:35;17.15;;;11.85;;
41293;SDS011;27037;52.010;4.446;2023-09-12T14:38:01;19.42;;;12.68;;